createdAt,value
2017-10-11T00:00:23.865Z,15.78
2017-10-11T00:01:25.281Z,15.82
2017-10-11T00:02:26.706Z,15.79
2017-10-11T00:03:28.133Z,15.79
2017-10-11T00:04:29.561Z,15.75
2017-10-11T00:05:30.978Z,15.66
2017-10-11T00:06:32.397Z,15.68
2017-10-11T00:07:33.817Z,15.68
2017-10-11T00:08:35.237Z,15.61
2017-10-11T00:09:36.652Z,15.75
2017-10-11T00:10:38.067Z,15.70
2017-10-11T00:11:39.497Z,15.61
2017-10-11T00:12:40.927Z,15.67
2017-10-11T00:13:42.343Z,15.81
2017-10-11T00:14:43.777Z,15.79
2017-10-11T00:15:45.216Z,15.89
2017-10-11T00:16:46.636Z,15.86
2017-10-11T00:17:48.067Z,15.66
2017-10-11T00:18:49.486Z,15.81
2017-10-11T00:19:50.915Z,15.88
2017-10-11T00:20:52.339Z,15.78
2017-10-11T00:21:53.755Z,15.79
2017-10-11T00:22:55.187Z,15.81
2017-10-11T00:23:56.610Z,15.68
2017-10-11T00:24:58.030Z,15.66
2017-10-11T00:25:59.482Z,15.74
2017-10-11T00:27:00.897Z,15.61
2017-10-11T00:28:02.356Z,15.68
2017-10-11T00:29:03.775Z,15.76
2017-10-11T00:30:05.193Z,15.86
2017-10-11T00:31:06.617Z,15.85
2017-10-11T00:32:08.041Z,15.79
2017-10-11T00:33:09.467Z,15.76
2017-10-11T00:34:10.892Z,15.82
2017-10-11T00:35:12.308Z,15.79
2017-10-11T00:36:13.734Z,15.94
2017-10-11T00:37:15.153Z,15.70
2017-10-11T00:38:16.569Z,15.72
2017-10-11T00:39:17.985Z,15.79
2017-10-11T00:40:19.400Z,15.79
2017-10-11T00:41:20.816Z,15.79
2017-10-11T00:42:22.246Z,15.89
2017-10-11T00:43:23.657Z,15.85
2017-10-11T00:44:25.082Z,15.97
2017-10-11T00:45:26.505Z,15.82
2017-10-11T00:46:27.921Z,15.79
2017-10-11T00:47:29.344Z,15.84
2017-10-11T00:48:30.768Z,15.79
2017-10-11T00:49:32.196Z,15.85
2017-10-11T00:50:33.612Z,15.81
2017-10-11T00:51:35.038Z,15.84
2017-10-11T00:52:36.456Z,15.94
2017-10-11T00:53:37.872Z,15.85
2017-10-11T00:54:39.302Z,15.84
2017-10-11T00:55:40.712Z,15.81
2017-10-11T00:56:42.128Z,15.89
2017-10-11T00:57:43.546Z,15.84
2017-10-11T00:58:44.971Z,15.97
2017-10-11T00:59:46.396Z,15.75
2017-10-11T01:00:47.820Z,15.67
2017-10-11T01:01:49.238Z,15.78
2017-10-11T01:02:50.662Z,15.88
2017-10-11T01:03:52.076Z,15.70
2017-10-11T01:04:53.495Z,15.86
2017-10-11T01:05:54.910Z,15.89
2017-10-11T01:06:56.336Z,15.94
2017-10-11T01:07:57.774Z,15.84
2017-10-11T01:08:59.197Z,15.66
2017-10-11T01:10:00.620Z,15.74
2017-10-11T01:11:02.043Z,15.70
2017-10-11T01:12:03.464Z,15.81
2017-10-11T01:13:04.881Z,15.60
2017-10-11T01:14:06.310Z,15.78
2017-10-11T01:15:07.734Z,15.74
2017-10-11T01:16:09.148Z,15.78
2017-10-11T01:17:10.572Z,15.78
2017-10-11T01:18:11.991Z,15.78
2017-10-11T01:19:13.411Z,15.81
2017-10-11T01:20:14.831Z,15.70
2017-10-11T01:21:16.251Z,15.75
2017-10-11T01:22:17.669Z,15.78
2017-10-11T01:23:19.095Z,15.67
2017-10-11T01:24:20.513Z,15.70
2017-10-11T01:25:21.933Z,15.76
2017-10-11T01:26:23.438Z,15.72
2017-10-11T01:27:24.854Z,15.70
2017-10-11T01:28:26.345Z,15.79
2017-10-11T01:29:27.765Z,15.79
2017-10-11T01:30:29.182Z,15.84
2017-10-11T01:31:30.604Z,15.82
2017-10-11T01:32:32.022Z,15.85
2017-10-11T01:33:33.509Z,15.67
2017-10-11T01:34:34.940Z,15.76
2017-10-11T01:35:36.400Z,15.81
2017-10-11T01:36:37.819Z,15.85
2017-10-11T01:37:39.237Z,15.82
2017-10-11T01:38:40.656Z,15.68
2017-10-11T01:39:42.078Z,15.79
2017-10-11T01:40:43.496Z,15.81
2017-10-11T01:41:44.919Z,15.72
2017-10-11T01:42:46.339Z,15.72
2017-10-11T01:43:47.762Z,15.81
2017-10-11T01:44:49.183Z,15.68
2017-10-11T01:45:50.593Z,15.70
2017-10-11T01:46:52.036Z,15.76
2017-10-11T01:47:53.458Z,15.70
2017-10-11T01:48:54.882Z,15.68
2017-10-11T01:49:56.306Z,15.68
2017-10-11T01:50:57.727Z,15.75
2017-10-11T01:51:59.148Z,15.70
2017-10-11T01:53:00.568Z,15.61
2017-10-11T01:54:01.982Z,15.72
2017-10-11T01:55:03.403Z,15.85
2017-10-11T01:56:04.814Z,15.78
2017-10-11T01:57:06.243Z,15.72
2017-10-11T01:58:07.663Z,15.81
2017-10-11T01:59:09.080Z,15.74
2017-10-11T02:00:10.501Z,15.81
2017-10-11T02:01:11.928Z,15.67
2017-10-11T02:02:13.346Z,15.76
2017-10-11T02:03:14.785Z,15.70
2017-10-11T02:04:16.211Z,15.81
2017-10-11T02:05:17.638Z,15.76
2017-10-11T02:06:19.058Z,15.70
2017-10-11T02:07:20.474Z,15.67
2017-10-11T02:08:21.894Z,15.78
2017-10-11T02:09:23.316Z,15.79
2017-10-11T02:10:24.735Z,15.76
2017-10-11T02:11:26.153Z,15.72
2017-10-11T02:12:27.576Z,15.66
2017-10-11T02:13:28.995Z,15.70
2017-10-11T02:14:30.418Z,15.79
2017-10-11T02:15:31.847Z,15.70
2017-10-11T02:16:33.265Z,15.70
2017-10-11T02:17:34.681Z,15.75
2017-10-11T02:18:36.105Z,15.70
2017-10-11T02:19:37.542Z,15.68
2017-10-11T02:20:38.955Z,15.72
2017-10-11T02:21:40.370Z,15.68
2017-10-11T02:22:41.798Z,15.63
2017-10-11T02:23:43.220Z,15.75
2017-10-11T02:24:44.630Z,15.75
2017-10-11T02:25:46.053Z,15.70
2017-10-11T02:26:47.465Z,15.59
2017-10-11T02:27:48.886Z,15.61
2017-10-11T02:28:50.304Z,15.68
2017-10-11T02:29:51.724Z,15.61
2017-10-11T02:30:53.140Z,15.67
2017-10-11T02:31:54.593Z,15.64
2017-10-11T02:32:56.016Z,15.70
2017-10-11T02:33:57.444Z,15.78
2017-10-11T02:34:58.864Z,15.68
2017-10-11T02:36:00.296Z,15.54
2017-10-11T02:37:01.707Z,15.72
2017-10-11T02:38:03.136Z,15.70
2017-10-11T02:39:04.560Z,15.75
2017-10-11T02:40:05.985Z,15.68
2017-10-11T02:41:07.405Z,15.74
2017-10-11T02:42:08.832Z,15.72
2017-10-11T02:43:10.255Z,15.76
2017-10-11T02:44:11.681Z,15.81
2017-10-11T02:45:13.106Z,15.74
2017-10-11T02:46:14.526Z,15.72
2017-10-11T02:47:15.948Z,15.86
2017-10-11T02:48:17.368Z,15.81
2017-10-11T02:49:18.787Z,15.79
2017-10-11T02:50:20.206Z,15.82
2017-10-11T02:51:21.615Z,15.84
2017-10-11T02:52:23.038Z,15.75
2017-10-11T02:53:24.452Z,15.70
2017-10-11T02:54:25.874Z,15.59
2017-10-11T02:55:27.293Z,15.70
2017-10-11T02:56:28.715Z,15.64
2017-10-11T02:57:30.169Z,15.81
2017-10-11T02:58:31.589Z,15.68
2017-10-11T02:59:33.006Z,15.68
2017-10-11T03:00:34.432Z,15.54
2017-10-11T03:01:35.852Z,15.56
2017-10-11T03:02:37.281Z,15.60
2017-10-11T03:03:38.705Z,15.79
2017-10-11T03:04:40.125Z,15.81
2017-10-11T03:05:41.541Z,15.68
2017-10-11T03:06:42.963Z,15.63
2017-10-11T03:07:44.380Z,15.68
2017-10-11T03:08:45.799Z,15.74
2017-10-11T03:09:47.218Z,15.70
2017-10-11T03:10:48.651Z,15.81
2017-10-11T03:11:50.075Z,15.76
2017-10-11T03:12:51.494Z,15.76
2017-10-11T03:13:52.917Z,15.72
2017-10-11T03:14:54.340Z,15.76
2017-10-11T03:15:55.755Z,15.79
2017-10-11T03:16:57.182Z,15.75
2017-10-11T03:17:58.602Z,15.78
2017-10-11T03:19:00.030Z,15.59
2017-10-11T03:20:01.442Z,15.54
2017-10-11T03:21:02.877Z,15.74
2017-10-11T03:22:04.327Z,15.72
2017-10-11T03:23:05.735Z,15.85
2017-10-11T03:24:07.158Z,15.79
2017-10-11T03:25:08.756Z,15.81
2017-10-11T03:26:10.179Z,15.66
2017-10-11T03:27:11.594Z,15.76
2017-10-11T03:28:13.016Z,15.82
2017-10-11T03:29:14.437Z,15.78
2017-10-11T03:30:15.857Z,15.63
2017-10-11T03:31:17.274Z,15.63
2017-10-11T03:32:18.703Z,15.63
2017-10-11T03:33:20.122Z,15.67
2017-10-11T03:34:21.541Z,15.72
2017-10-11T03:35:22.961Z,15.70
2017-10-11T03:36:24.385Z,15.72
2017-10-11T03:37:25.807Z,15.74
2017-10-11T03:38:27.234Z,16.11
2017-10-11T03:39:28.707Z,15.99
2017-10-11T03:40:30.139Z,15.96
2017-10-11T03:41:33.070Z,15.82
2017-10-11T03:42:34.484Z,15.81
2017-10-11T03:43:35.914Z,15.99
2017-10-11T03:44:37.337Z,15.68
2017-10-11T03:45:38.715Z,15.66
2017-10-11T03:46:40.138Z,15.79
2017-10-11T03:47:41.556Z,15.74
2017-10-11T03:48:42.982Z,15.88
2017-10-11T03:49:44.420Z,15.79
2017-10-11T03:50:45.834Z,15.70
2017-10-11T03:51:47.257Z,15.66
2017-10-11T03:52:48.680Z,15.63
2017-10-11T03:53:50.113Z,15.72
2017-10-11T03:54:51.529Z,15.68
2017-10-11T03:55:52.944Z,15.72
2017-10-11T03:56:54.359Z,15.59
2017-10-11T03:57:55.778Z,15.67
2017-10-11T03:58:57.202Z,15.70
2017-10-11T03:59:58.616Z,15.75
2017-10-11T04:01:00.034Z,15.78
2017-10-11T04:02:01.468Z,15.67
2017-10-11T04:03:02.885Z,15.75
2017-10-11T04:04:04.308Z,15.61
2017-10-11T04:05:05.733Z,15.66
2017-10-11T04:06:07.149Z,15.63
2017-10-11T04:07:08.564Z,15.72
2017-10-11T04:08:09.985Z,15.82
2017-10-11T04:09:11.408Z,15.64
2017-10-11T04:10:12.832Z,15.60
2017-10-11T04:11:14.250Z,15.57
2017-10-11T04:12:15.670Z,15.56
2017-10-11T04:13:17.101Z,15.66
2017-10-11T04:14:18.527Z,15.64
2017-10-11T04:15:19.954Z,15.56
2017-10-11T04:16:21.378Z,15.67
2017-10-11T04:17:22.790Z,15.57
2017-10-11T04:18:24.204Z,15.52
2017-10-11T04:19:25.616Z,15.64
2017-10-11T04:20:27.043Z,15.51
2017-10-11T04:21:28.466Z,15.49
2017-10-11T04:22:29.881Z,15.51
2017-10-11T04:23:31.300Z,15.42
2017-10-11T04:24:32.741Z,15.48
2017-10-11T04:25:34.166Z,15.56
2017-10-11T04:26:35.590Z,15.51
2017-10-11T04:27:37.018Z,15.52
2017-10-11T04:28:38.464Z,15.57
2017-10-11T04:29:39.884Z,15.68
2017-10-11T04:30:41.317Z,15.51
2017-10-11T04:31:42.733Z,15.49
2017-10-11T04:32:44.149Z,15.36
2017-10-11T04:33:45.580Z,15.49
2017-10-11T04:34:46.997Z,15.52
2017-10-11T04:35:48.422Z,15.48
2017-10-11T04:36:49.839Z,15.57
2017-10-11T04:37:51.250Z,15.54
2017-10-11T04:38:52.667Z,15.51
2017-10-11T04:39:54.106Z,15.57
2017-10-11T04:40:55.525Z,15.51
2017-10-11T04:41:56.946Z,15.51
2017-10-11T04:42:58.368Z,15.54
2017-10-11T04:43:59.802Z,15.48
2017-10-11T04:45:01.231Z,15.48
2017-10-11T04:46:02.657Z,15.52
2017-10-11T04:47:04.076Z,15.49
2017-10-11T04:48:05.510Z,15.52
2017-10-11T04:49:06.964Z,15.56
2017-10-11T04:50:08.401Z,15.38
2017-10-11T04:51:09.817Z,15.49
2017-10-11T04:52:11.236Z,15.57
2017-10-11T04:53:12.653Z,15.60
2017-10-11T04:54:14.079Z,15.51
2017-10-11T04:55:15.853Z,15.68
2017-10-11T04:56:17.440Z,15.63
2017-10-11T04:57:18.853Z,15.59
2017-10-11T04:58:20.293Z,15.51
2017-10-11T04:59:22.210Z,15.54
2017-10-11T05:00:23.663Z,15.52
2017-10-11T05:01:25.094Z,15.52
2017-10-11T05:02:26.511Z,15.51
2017-10-11T05:03:28.056Z,15.42
2017-10-11T05:04:29.484Z,15.49
2017-10-11T05:05:30.915Z,15.52
2017-10-11T05:06:32.412Z,15.52
2017-10-11T05:07:33.830Z,15.52
2017-10-11T05:08:35.257Z,15.60
2017-10-11T05:09:36.671Z,15.54
2017-10-11T05:10:38.101Z,15.54
2017-10-11T05:11:39.518Z,15.49
2017-10-11T05:12:40.949Z,15.49
2017-10-11T05:13:42.374Z,15.51
2017-10-11T05:14:43.795Z,15.54
2017-10-11T05:15:45.212Z,15.49
2017-10-11T05:16:46.635Z,15.52
2017-10-11T05:17:48.057Z,15.60
2017-10-11T05:18:49.482Z,15.57
2017-10-11T05:19:50.905Z,15.54
2017-10-11T05:20:52.319Z,15.63
2017-10-11T05:21:53.732Z,15.59
2017-10-11T05:22:55.147Z,15.48
2017-10-11T05:23:56.572Z,15.57
2017-10-11T05:24:57.998Z,15.51
2017-10-11T05:25:59.421Z,15.57
2017-10-11T05:27:00.838Z,15.59
2017-10-11T05:28:02.254Z,15.57
2017-10-11T05:29:03.666Z,15.51
2017-10-11T05:30:05.090Z,15.52
2017-10-11T05:31:06.509Z,15.49
2017-10-11T05:32:07.943Z,15.49
2017-10-11T05:33:09.363Z,15.54
2017-10-11T05:34:10.785Z,15.56
2017-10-11T05:35:12.977Z,15.68
2017-10-11T05:36:14.407Z,15.56
2017-10-11T05:37:15.823Z,15.38
2017-10-11T05:38:17.246Z,15.52
2017-10-11T05:39:18.665Z,15.51
2017-10-11T05:40:20.089Z,15.51
2017-10-11T05:41:21.517Z,15.48
2017-10-11T05:42:22.937Z,15.49
2017-10-11T05:43:24.355Z,15.52
2017-10-11T05:44:25.772Z,15.52
2017-10-11T05:45:27.190Z,15.51
2017-10-11T05:46:28.614Z,15.36
2017-10-11T05:47:30.035Z,15.42
2017-10-11T05:48:31.447Z,15.38
2017-10-11T05:49:32.941Z,15.46
2017-10-11T05:50:34.355Z,15.57
2017-10-11T05:51:35.773Z,15.49
2017-10-11T05:52:37.194Z,15.49
2017-10-11T05:53:38.631Z,15.54
2017-10-11T05:54:40.058Z,15.46
2017-10-11T05:55:41.478Z,15.52
2017-10-11T05:56:42.894Z,15.52
2017-10-11T05:57:44.317Z,15.57
2017-10-11T05:58:45.736Z,15.76
2017-10-11T05:59:47.156Z,15.57
2017-10-11T06:00:48.571Z,15.64
2017-10-11T06:01:50.002Z,15.57
2017-10-11T06:02:51.425Z,15.59
2017-10-11T06:03:52.857Z,15.54
2017-10-11T06:04:54.346Z,15.52
2017-10-11T06:05:55.768Z,15.64
2017-10-11T06:06:57.199Z,15.49
2017-10-11T06:07:58.720Z,15.49
2017-10-11T06:09:00.140Z,15.46
2017-10-11T06:10:01.561Z,15.51
2017-10-11T06:11:02.984Z,15.59
2017-10-11T06:12:04.401Z,15.74
2017-10-11T06:13:05.827Z,15.60
2017-10-11T06:14:07.246Z,15.67
2017-10-11T06:15:08.674Z,15.67
2017-10-11T06:16:10.098Z,15.66
2017-10-11T06:17:11.520Z,15.59
2017-10-11T06:18:12.939Z,15.70
2017-10-11T06:19:14.369Z,15.74
2017-10-11T06:20:15.800Z,15.61
2017-10-11T06:21:17.219Z,15.79
2017-10-11T06:22:18.629Z,15.74
2017-10-11T06:23:20.058Z,15.75
2017-10-11T06:24:21.477Z,15.79
2017-10-11T06:25:22.900Z,15.76
2017-10-11T06:26:24.322Z,15.76
2017-10-11T06:27:25.742Z,15.74
2017-10-11T06:28:27.163Z,15.85
2017-10-11T06:29:28.583Z,15.72
2017-10-11T06:30:30.009Z,15.76
2017-10-11T06:31:31.421Z,15.70
2017-10-11T06:32:32.858Z,15.75
2017-10-11T06:33:34.282Z,15.76
2017-10-11T06:34:35.700Z,15.64
2017-10-11T06:35:37.118Z,15.70
2017-10-11T06:36:38.555Z,15.66
2017-10-11T06:37:40.151Z,15.74
2017-10-11T06:38:41.575Z,15.74
2017-10-11T06:39:42.996Z,15.60
2017-10-11T06:40:44.439Z,15.76
2017-10-11T06:41:45.982Z,15.76
2017-10-11T06:42:47.414Z,15.70
2017-10-11T06:43:48.845Z,15.68
2017-10-11T06:44:50.268Z,15.70
2017-10-11T06:45:51.698Z,15.79
2017-10-11T06:46:53.129Z,15.70
2017-10-11T06:47:54.555Z,15.72
2017-10-11T06:48:55.969Z,15.76
2017-10-11T06:49:57.397Z,15.66
2017-10-11T06:50:58.821Z,15.67
2017-10-11T06:52:00.262Z,15.63
2017-10-11T06:53:01.680Z,15.75
2017-10-11T06:54:49.712Z,15.67
2017-10-11T06:55:51.525Z,15.78
2017-10-11T06:56:52.948Z,15.85
2017-10-11T06:57:54.442Z,15.81
2017-10-11T06:58:55.880Z,15.76
2017-10-11T06:59:57.374Z,15.85
2017-10-11T07:00:58.795Z,15.88
2017-10-11T07:02:00.220Z,15.86
2017-10-11T07:03:01.649Z,15.85
2017-10-11T07:04:03.076Z,15.81
2017-10-11T07:05:04.500Z,15.79
2017-10-11T07:06:05.925Z,15.84
2017-10-11T07:07:07.350Z,15.78
2017-10-11T07:08:08.770Z,15.88
2017-10-11T07:09:10.196Z,15.84
2017-10-11T07:10:11.626Z,15.86
2017-10-11T07:11:13.048Z,15.85
2017-10-11T07:12:14.473Z,15.88
2017-10-11T07:13:15.891Z,15.78
2017-10-11T07:14:17.320Z,15.96
2017-10-11T07:15:18.746Z,15.97
2017-10-11T07:16:20.167Z,15.94
2017-10-11T07:17:21.597Z,16.01
2017-10-11T07:18:23.021Z,16.03
2017-10-11T07:19:26.066Z,15.94
2017-10-11T07:20:27.453Z,16.04
2017-10-11T07:21:28.880Z,16.09
2017-10-11T07:22:30.310Z,15.99
2017-10-11T07:23:31.743Z,16.14
2017-10-11T07:24:33.158Z,15.94
2017-10-11T07:25:34.584Z,16.07
2017-10-11T07:26:36.011Z,16.09
2017-10-11T07:27:37.424Z,16.27
2017-10-11T07:28:38.845Z,16.11
2017-10-11T07:29:40.274Z,16.31
2017-10-11T07:30:41.702Z,16.18
2017-10-11T07:31:43.126Z,16.27
2017-10-11T07:32:44.551Z,16.18
2017-10-11T07:33:45.969Z,16.25
2017-10-11T07:34:47.402Z,16.41
2017-10-11T07:35:48.817Z,16.38
2017-10-11T07:36:50.241Z,16.35
2017-10-11T07:37:51.664Z,16.48
2017-10-11T07:38:53.105Z,16.42
2017-10-11T07:39:54.529Z,16.58
2017-10-11T07:40:55.964Z,16.63
2017-10-11T07:41:57.384Z,16.53
2017-10-11T07:42:58.811Z,16.33
2017-10-11T07:44:00.239Z,16.23
2017-10-11T07:45:01.670Z,16.22
2017-10-11T07:46:03.091Z,16.22
2017-10-11T07:47:04.526Z,16.33
2017-10-11T07:48:05.949Z,16.25
2017-10-11T07:49:07.372Z,16.30
2017-10-11T07:50:08.796Z,16.23
2017-10-11T07:51:10.219Z,16.30
2017-10-11T07:52:11.641Z,16.30
2017-10-11T07:53:13.060Z,16.33
2017-10-11T07:54:14.485Z,16.34
2017-10-11T07:55:15.913Z,16.33
2017-10-11T07:56:17.336Z,16.48
2017-10-11T07:57:18.753Z,16.30
2017-10-11T07:58:20.174Z,16.31
2017-10-11T07:59:21.594Z,16.07
2017-10-11T08:00:23.009Z,16.26
2017-10-11T08:01:24.438Z,16.23
2017-10-11T08:02:25.861Z,16.26
2017-10-11T08:03:27.282Z,16.26
2017-10-11T08:04:28.707Z,16.35
2017-10-11T08:05:30.133Z,16.26
2017-10-11T08:06:31.555Z,16.40
2017-10-11T08:07:32.977Z,16.33
2017-10-11T08:08:34.453Z,16.42
2017-10-11T08:09:35.840Z,16.50
2017-10-11T08:10:37.271Z,16.38
2017-10-11T08:11:38.702Z,16.50
2017-10-11T08:12:40.129Z,16.41
2017-10-11T08:13:41.573Z,16.50
2017-10-11T08:14:43.001Z,16.23
2017-10-11T08:15:44.425Z,16.49
2017-10-11T08:16:45.849Z,16.56
2017-10-11T08:17:47.268Z,16.58
2017-10-11T08:18:48.698Z,16.52
2017-10-11T08:19:50.138Z,16.55
2017-10-11T08:20:51.557Z,16.52
2017-10-11T08:21:52.972Z,16.48
2017-10-11T08:22:54.396Z,16.45
2017-10-11T08:23:55.820Z,16.49
2017-10-11T08:24:57.241Z,16.50
2017-10-11T08:25:58.674Z,16.53
2017-10-11T08:27:00.098Z,16.62
2017-10-11T08:28:01.544Z,16.53
2017-10-11T08:29:02.968Z,16.52
2017-10-11T08:30:04.398Z,16.50
2017-10-11T08:31:05.820Z,16.42
2017-10-11T08:32:07.242Z,16.42
2017-10-11T08:33:08.691Z,16.45
2017-10-11T08:34:10.108Z,16.45
2017-10-11T08:35:11.528Z,16.44
2017-10-11T08:36:12.947Z,16.40
2017-10-11T08:37:14.374Z,16.50
2017-10-11T08:38:15.802Z,16.42
2017-10-11T08:39:17.226Z,16.48
2017-10-11T08:40:18.649Z,16.48
2017-10-11T08:41:20.080Z,16.48
2017-10-11T08:42:21.503Z,16.37
2017-10-11T08:43:22.922Z,16.49
2017-10-11T08:44:24.354Z,16.56
2017-10-11T08:45:25.781Z,16.48
2017-10-11T08:46:27.200Z,16.48
2017-10-11T08:47:28.629Z,16.48
2017-10-11T08:48:30.048Z,16.42
2017-10-11T08:49:31.480Z,16.42
2017-10-11T08:50:32.897Z,16.56
2017-10-11T08:51:34.323Z,16.49
2017-10-11T08:52:35.758Z,16.59
2017-10-11T08:53:37.176Z,16.58
2017-10-11T08:54:38.594Z,16.55
2017-10-11T08:55:40.017Z,16.50
2017-10-11T08:56:41.491Z,16.63
2017-10-11T08:57:42.918Z,16.74
2017-10-11T08:58:44.339Z,16.59
2017-10-11T08:59:45.759Z,16.53
2017-10-11T09:00:47.193Z,16.48
2017-10-11T09:01:48.615Z,16.35
2017-10-11T09:02:50.031Z,16.49
2017-10-11T09:03:51.456Z,16.33
2017-10-11T09:04:52.880Z,16.31
2017-10-11T09:05:54.308Z,16.42
2017-10-11T09:06:55.738Z,16.35
2017-10-11T09:07:57.167Z,16.50
2017-10-11T09:08:58.589Z,16.48
2017-10-11T09:10:00.016Z,16.45
2017-10-11T09:11:01.434Z,16.38
2017-10-11T09:12:02.859Z,16.50
2017-10-11T09:13:04.283Z,16.48
2017-10-11T09:14:05.720Z,16.48
2017-10-11T09:15:07.144Z,16.45
2017-10-11T09:16:08.577Z,16.50
2017-10-11T09:17:10.006Z,16.45
2017-10-11T09:18:11.426Z,16.49
2017-10-11T09:19:12.847Z,16.48
2017-10-11T09:20:14.277Z,16.44
2017-10-11T09:21:15.708Z,16.44
2017-10-11T09:22:17.130Z,16.45
2017-10-11T09:23:18.550Z,16.53
2017-10-11T09:24:19.969Z,16.68
2017-10-11T09:25:21.401Z,16.65
2017-10-11T09:26:22.822Z,16.49
2017-10-11T09:27:24.248Z,16.53
2017-10-11T09:28:25.667Z,16.65
2017-10-11T09:29:27.093Z,16.68
2017-10-11T09:30:28.511Z,16.73
2017-10-11T09:31:29.931Z,16.85
2017-10-11T09:32:31.352Z,16.74
2017-10-11T09:33:32.779Z,16.65
2017-10-11T09:34:34.216Z,16.59
2017-10-11T09:35:35.695Z,16.55
2017-10-11T09:36:37.119Z,16.60
2017-10-11T09:37:38.540Z,16.58
2017-10-11T09:38:39.976Z,16.59
2017-10-11T09:39:41.393Z,16.49
2017-10-11T09:40:42.815Z,16.55
2017-10-11T09:41:44.235Z,16.49
2017-10-11T09:42:45.659Z,16.59
2017-10-11T09:43:47.086Z,16.48
2017-10-11T09:44:48.556Z,16.52
2017-10-11T09:45:49.983Z,16.45
2017-10-11T09:46:51.401Z,16.55
2017-10-11T09:47:52.831Z,16.59
2017-10-11T09:48:54.258Z,16.55
2017-10-11T09:49:55.686Z,16.48
2017-10-11T09:50:57.111Z,16.48
2017-10-11T09:51:58.542Z,16.56
2017-10-11T09:52:59.970Z,16.55
2017-10-11T09:54:01.402Z,16.58
2017-10-11T09:55:02.827Z,16.62
2017-10-11T09:56:05.293Z,16.68
2017-10-11T09:57:06.717Z,16.50
2017-10-11T09:58:08.141Z,16.59
2017-10-11T09:59:09.574Z,16.55
2017-10-11T10:00:11.008Z,16.62
2017-10-11T10:01:12.438Z,16.62
2017-10-11T10:02:13.866Z,16.60
2017-10-11T10:03:15.291Z,16.60
2017-10-11T10:04:16.717Z,16.55
2017-10-11T10:05:18.150Z,16.42
2017-10-11T10:06:19.575Z,16.63
2017-10-11T10:07:21.040Z,16.52
2017-10-11T10:08:22.474Z,16.49
2017-10-11T10:09:23.893Z,16.71
2017-10-11T10:10:25.313Z,16.60
2017-10-11T10:11:26.736Z,16.74
2017-10-11T10:12:28.159Z,16.67
2017-10-11T10:13:29.598Z,16.73
2017-10-11T10:14:31.027Z,16.81
2017-10-11T10:15:32.450Z,16.81
2017-10-11T10:16:33.874Z,16.86
2017-10-11T10:17:35.307Z,16.83
2017-10-11T10:18:37.363Z,16.52
2017-10-11T10:19:38.796Z,16.60
2017-10-11T10:20:40.228Z,16.62
2017-10-11T10:21:41.640Z,16.73
2017-10-11T10:22:43.068Z,16.77
2017-10-11T10:23:44.494Z,16.70
2017-10-11T10:24:45.927Z,16.75
2017-10-11T10:25:47.344Z,16.75
2017-10-11T10:26:48.767Z,16.67
2017-10-11T10:27:50.201Z,16.62
2017-10-11T10:28:51.622Z,16.71
2017-10-11T10:29:53.045Z,16.80
2017-10-11T10:30:54.468Z,16.65
2017-10-11T10:31:55.889Z,16.58
2017-10-11T10:32:57.319Z,16.60
2017-10-11T10:33:58.742Z,16.60
2017-10-11T10:35:00.184Z,16.60
2017-10-11T10:36:01.601Z,16.67
2017-10-11T10:37:03.018Z,16.59
2017-10-11T10:38:04.453Z,16.65
2017-10-11T10:39:05.878Z,16.70
2017-10-11T10:40:07.295Z,16.74
2017-10-11T10:41:08.718Z,16.83
2017-10-11T10:42:10.140Z,16.59
2017-10-11T10:43:11.569Z,16.67
2017-10-11T10:44:13.002Z,16.67
2017-10-11T10:45:14.428Z,16.70
2017-10-11T10:46:15.878Z,16.58
2017-10-11T10:47:17.316Z,16.55
2017-10-11T10:48:18.737Z,16.52
2017-10-11T10:49:20.167Z,16.62
2017-10-11T10:50:21.586Z,16.59
2017-10-11T10:51:23.012Z,16.55
2017-10-11T10:52:24.454Z,16.53
2017-10-11T10:53:25.895Z,16.56
2017-10-11T10:54:27.317Z,16.62
2017-10-11T10:55:28.743Z,16.60
2017-10-11T10:56:30.184Z,16.59
2017-10-11T10:57:31.610Z,16.59
2017-10-11T10:58:33.031Z,16.56
2017-10-11T10:59:34.457Z,16.65
2017-10-11T11:00:35.891Z,16.63
2017-10-11T11:01:37.313Z,16.53
2017-10-11T11:02:38.729Z,16.73
2017-10-11T11:03:40.149Z,16.53
2017-10-11T11:04:41.586Z,16.62
2017-10-11T11:05:43.015Z,16.73
2017-10-11T11:06:44.442Z,16.73
2017-10-11T11:07:45.871Z,16.68
2017-10-11T11:08:47.295Z,16.78
2017-10-11T11:09:48.721Z,16.73
2017-10-11T11:10:50.149Z,16.60
2017-10-11T11:11:51.581Z,16.53
2017-10-11T11:12:53.031Z,16.58
2017-10-11T11:13:54.467Z,16.65
2017-10-11T11:14:55.893Z,16.65
2017-10-11T11:15:57.318Z,16.71
2017-10-11T11:16:58.754Z,16.75
2017-10-11T11:18:00.176Z,16.63
2017-10-11T11:19:01.598Z,16.68
2017-10-11T11:20:03.026Z,16.88
2017-10-11T11:21:04.584Z,16.56
2017-10-11T11:22:06.014Z,16.80
2017-10-11T11:23:07.434Z,16.85
2017-10-11T11:24:08.857Z,16.81
2017-10-11T11:25:10.282Z,16.88
2017-10-11T11:26:11.722Z,16.78
2017-10-11T11:27:13.142Z,16.73
2017-10-11T11:28:14.574Z,16.80
2017-10-11T11:29:15.999Z,16.60
2017-10-11T11:30:17.428Z,16.53
2017-10-11T11:31:18.844Z,16.52
2017-10-11T11:32:20.286Z,16.62
2017-10-11T11:33:21.711Z,16.74
2017-10-11T11:34:23.138Z,16.62
2017-10-11T11:35:24.555Z,16.53
2017-10-11T11:36:25.983Z,16.56
2017-10-11T11:37:27.401Z,16.62
2017-10-11T11:38:28.831Z,16.67
2017-10-11T11:39:30.265Z,16.55
2017-10-11T11:40:31.690Z,16.59
2017-10-11T11:41:33.117Z,16.60
2017-10-11T11:42:34.537Z,16.73
2017-10-11T11:43:35.978Z,16.74
2017-10-11T11:44:37.400Z,16.59
2017-10-11T11:45:38.836Z,16.67
2017-10-11T11:46:40.245Z,16.74
2017-10-11T11:47:41.666Z,16.74
2017-10-11T11:48:43.087Z,16.71
2017-10-11T11:49:44.519Z,16.62
2017-10-11T11:50:45.941Z,16.88
2017-10-11T11:51:47.365Z,16.85
2017-10-11T11:52:48.785Z,16.71
2017-10-11T11:53:50.217Z,16.73
2017-10-11T11:54:51.640Z,16.75
2017-10-11T11:55:53.104Z,16.80
2017-10-11T11:56:54.529Z,16.71
2017-10-11T11:57:55.956Z,16.90
2017-10-11T11:58:57.417Z,16.92
2017-10-11T11:59:58.848Z,16.74
2017-10-11T12:01:00.325Z,16.65
2017-10-11T12:02:01.760Z,16.60
2017-10-11T12:03:03.247Z,16.67
2017-10-11T12:04:04.671Z,16.73
2017-10-11T12:05:06.094Z,16.78
2017-10-11T12:06:07.538Z,16.62
2017-10-11T12:07:08.960Z,16.67
2017-10-11T12:08:10.467Z,16.67
2017-10-11T12:09:11.888Z,16.63
2017-10-11T12:10:13.411Z,16.53
2017-10-11T12:11:14.845Z,16.49
2017-10-11T12:12:16.272Z,16.48
2017-10-11T12:13:17.696Z,16.50
2017-10-11T12:14:19.122Z,16.45
2017-10-11T12:15:20.552Z,16.52
2017-10-11T12:16:21.975Z,16.48
2017-10-11T12:17:23.400Z,16.65
2017-10-11T12:18:24.854Z,16.59
2017-10-11T12:19:26.287Z,16.62
2017-10-11T12:20:27.725Z,16.62
2017-10-11T12:21:29.158Z,16.50
2017-10-11T12:22:30.574Z,16.52
2017-10-11T12:23:32.000Z,16.59
2017-10-11T12:24:33.426Z,16.48
2017-10-11T12:25:34.853Z,16.70
2017-10-11T12:26:36.294Z,16.59
2017-10-11T12:27:37.718Z,16.45
2017-10-11T12:28:39.694Z,16.50
2017-10-11T12:29:40.512Z,16.41
2017-10-11T12:30:41.929Z,16.49
2017-10-11T12:31:43.367Z,16.50
2017-10-11T12:32:44.790Z,16.60
2017-10-11T12:33:46.214Z,16.49
2017-10-11T12:34:47.645Z,16.53
2017-10-11T12:35:49.069Z,16.49
2017-10-11T12:36:50.488Z,16.50
2017-10-11T12:37:51.915Z,16.52
2017-10-11T12:38:53.338Z,16.58
2017-10-11T12:39:54.769Z,16.56
2017-10-11T12:40:56.236Z,16.52
2017-10-11T12:41:57.660Z,16.58
2017-10-11T12:42:59.121Z,16.58
2017-10-11T12:44:00.541Z,16.56
2017-10-11T12:45:02.028Z,16.62
2017-10-11T12:46:03.457Z,16.75
2017-10-11T12:47:04.880Z,16.78
2017-10-11T12:48:06.370Z,16.58
2017-10-11T12:49:07.798Z,16.53
2017-10-11T12:50:09.227Z,16.65
2017-10-11T12:51:10.656Z,16.74
2017-10-11T12:52:12.088Z,16.75
2017-10-11T12:53:13.525Z,16.68
2017-10-11T12:54:14.942Z,16.65
2017-10-11T12:55:16.371Z,16.67
2017-10-11T12:56:17.803Z,16.67
2017-10-11T12:57:19.247Z,16.62
2017-10-11T12:58:20.656Z,16.65
2017-10-11T12:59:22.081Z,16.50
2017-10-11T13:00:23.514Z,16.68
2017-10-11T13:01:24.945Z,16.74
2017-10-11T13:02:26.368Z,16.74
2017-10-11T13:03:27.799Z,16.71
2017-10-11T13:04:29.262Z,16.65
2017-10-11T13:05:30.662Z,16.81
2017-10-11T13:06:32.081Z,16.70
2017-10-11T13:07:33.510Z,16.80
2017-10-11T13:08:34.944Z,16.81
2017-10-11T13:09:36.362Z,16.78
2017-10-11T13:10:37.787Z,16.80
2017-10-11T13:11:39.223Z,16.73